createdAt,value
2023-05-19T00:02:27.631Z,88.10
2023-05-19T00:05:03.047Z,88.00
2023-05-19T00:07:39.184Z,88.20
2023-05-19T00:10:15.604Z,88.70
2023-05-19T00:12:51.881Z,88.60
2023-05-19T00:15:28.334Z,89.00
2023-05-19T00:18:02.074Z,89.40
2023-05-19T00:20:35.467Z,90.00
2023-05-19T00:23:08.769Z,90.00
2023-05-19T00:25:42.690Z,90.00
2023-05-19T00:28:16.133Z,90.00
2023-05-19T00:30:49.710Z,90.10
2023-05-19T00:33:23.140Z,90.00
2023-05-19T00:35:56.452Z,90.00
2023-05-19T00:38:29.732Z,90.00
2023-05-19T00:41:04.317Z,90.50
2023-05-19T00:43:37.676Z,90.20
2023-05-19T00:46:11.778Z,90.40
2023-05-19T00:48:45.644Z,90.60
2023-05-19T00:51:20.763Z,90.70
2023-05-19T00:53:54.205Z,90.80
2023-05-19T00:56:27.901Z,91.10
2023-05-19T00:59:01.819Z,90.90
2023-05-19T01:01:35.243Z,91.20
2023-05-19T01:04:10.528Z,91.60
2023-05-19T01:06:44.686Z,91.80
2023-05-19T01:09:18.409Z,91.80
2023-05-19T01:11:51.429Z,91.90
2023-05-19T01:14:25.855Z,91.70
2023-05-19T01:17:09.903Z,91.80
2023-05-19T01:20:06.577Z,92.40
2023-05-19T01:23:28.803Z,92.20
2023-05-19T01:26:27.957Z,92.70
2023-05-19T01:29:29.090Z,92.50
2023-05-19T01:32:05.857Z,92.70
2023-05-19T01:34:43.639Z,92.60
2023-05-19T01:37:18.736Z,92.60
2023-05-19T01:39:53.557Z,92.70
2023-05-19T01:42:28.297Z,92.70
2023-05-19T01:45:02.644Z,93.00
2023-05-19T01:47:38.197Z,93.10
2023-05-19T01:50:14.553Z,93.20
2023-05-19T01:52:48.067Z,93.20
2023-05-19T01:55:23.244Z,93.30
2023-05-19T01:58:14.578Z,93.20
2023-05-19T02:01:04.866Z,93.50
2023-05-19T02:04:04.980Z,93.80
2023-05-19T02:06:47.290Z,93.70
2023-05-19T02:09:24.651Z,93.70
2023-05-19T02:12:05.461Z,93.70
2023-05-19T02:14:46.394Z,93.70
2023-05-19T02:17:21.513Z,93.80
2023-05-19T02:19:54.565Z,93.80
2023-05-19T02:22:27.964Z,94.30
2023-05-19T02:25:01.417Z,94.00
2023-05-19T02:27:35.064Z,94.20
2023-05-19T02:30:10.254Z,94.10
2023-05-19T02:32:46.867Z,94.50
2023-05-19T02:35:21.027Z,94.50
2023-05-19T02:37:55.105Z,94.50
2023-05-19T02:40:28.586Z,94.30
2023-05-19T02:43:01.979Z,94.30
2023-05-19T02:45:35.246Z,94.40
2023-05-19T02:48:09.756Z,94.90
2023-05-19T02:50:43.007Z,95.00
2023-05-19T02:53:16.302Z,94.90
2023-05-19T02:55:49.693Z,94.80
2023-05-19T02:58:22.984Z,95.20
2023-05-19T03:00:56.275Z,95.20
2023-05-19T03:03:29.683Z,95.30
2023-05-19T03:06:03.074Z,95.50
2023-05-19T03:08:36.628Z,95.60
2023-05-19T03:11:10.325Z,95.60
2023-05-19T03:13:43.587Z,95.70
2023-05-19T03:16:16.888Z,95.90
2023-05-19T03:18:51.260Z,96.00
2023-05-19T03:21:24.625Z,96.30
2023-05-19T03:23:58.045Z,96.50
2023-05-19T03:26:31.512Z,96.40
2023-05-19T03:29:05.103Z,96.50
2023-05-19T03:31:38.406Z,96.60
2023-05-19T03:34:11.658Z,96.60
2023-05-19T03:36:45.059Z,96.40
2023-05-19T03:39:18.714Z,96.60
2023-05-19T03:41:52.019Z,96.70
2023-05-19T03:44:25.279Z,97.00
2023-05-19T03:46:58.615Z,97.00
2023-05-19T03:49:31.959Z,96.90
2023-05-19T03:52:05.291Z,96.90
2023-05-19T03:54:39.945Z,97.10
2023-05-19T03:57:14.993Z,97.40
2023-05-19T03:59:48.514Z,97.30
2023-05-19T04:02:21.940Z,97.60
2023-05-19T04:04:55.983Z,97.70
2023-05-19T04:07:29.374Z,97.70
2023-05-19T04:10:03.424Z,97.80
2023-05-19T04:12:37.132Z,97.90
2023-05-19T04:15:14.490Z,98.10
2023-05-19T04:17:48.545Z,98.10
2023-05-19T04:20:22.080Z,98.00
2023-05-19T04:22:55.096Z,98.20
2023-05-19T04:25:28.429Z,98.10
2023-05-19T04:28:03.002Z,97.90
2023-05-19T04:30:37.016Z,97.80
2023-05-19T04:33:10.816Z,98.00
2023-05-19T04:35:44.389Z,98.20
2023-05-19T04:38:18.881Z,98.20
2023-05-19T04:40:52.473Z,98.40
2023-05-19T04:43:27.265Z,98.50
2023-05-19T04:46:02.034Z,98.60
2023-05-19T04:48:35.399Z,98.80
2023-05-19T04:51:09.298Z,98.70
2023-05-19T04:53:42.290Z,98.70
2023-05-19T04:56:15.724Z,98.70
2023-05-19T04:58:49.402Z,98.80
2023-05-19T05:01:25.884Z,98.90
2023-05-19T05:04:02.238Z,99.20
2023-05-19T05:06:38.308Z,99.40
2023-05-19T05:09:11.509Z,98.80
2023-05-19T05:11:47.978Z,98.90
2023-05-19T05:14:23.438Z,98.90
2023-05-19T05:16:57.913Z,98.90
2023-05-19T05:19:33.549Z,98.80
2023-05-19T05:22:08.729Z,99.00
2023-05-19T05:24:42.399Z,99.00
2023-05-19T05:27:15.731Z,99.10
2023-05-19T05:29:49.805Z,99.10
2023-05-19T05:32:25.729Z,99.10
2023-05-19T05:34:59.460Z,99.10
2023-05-19T05:37:33.380Z,98.90
2023-05-19T05:40:08.011Z,98.90
2023-05-19T05:42:41.355Z,98.90
2023-05-19T05:45:16.760Z,98.70
2023-05-19T05:47:53.395Z,98.80
2023-05-19T05:50:29.280Z,98.80
2023-05-19T05:53:04.637Z,98.80
2023-05-19T05:55:39.956Z,98.50
2023-05-19T05:58:15.514Z,98.50
2023-05-19T06:00:49.263Z,98.40
2023-05-19T06:03:24.404Z,98.10
2023-05-19T06:05:58.146Z,98.10
2023-05-19T06:08:31.837Z,98.00
2023-05-19T06:11:08.382Z,97.80
2023-05-19T06:13:42.382Z,97.80
2023-05-19T06:16:15.721Z,97.70
2023-05-19T06:18:49.267Z,97.30
2023-05-19T06:21:22.769Z,97.20
2023-05-19T06:23:56.356Z,97.10
2023-05-19T06:26:29.455Z,97.10
2023-05-19T06:29:02.767Z,96.80
2023-05-19T06:31:36.064Z,96.80
2023-05-19T06:34:12.270Z,96.70
2023-05-19T06:36:45.964Z,96.50
2023-05-19T06:39:19.254Z,96.70
2023-05-19T06:41:52.544Z,96.60
2023-05-19T06:44:26.015Z,96.50
2023-05-19T06:46:59.301Z,96.60
2023-05-19T06:49:32.918Z,96.90
2023-05-19T06:52:06.653Z,96.80
2023-05-19T06:54:39.964Z,96.60
2023-05-19T06:57:13.077Z,96.40
2023-05-19T06:59:46.707Z,96.30
2023-05-19T07:02:19.999Z,96.10
2023-05-19T07:04:53.991Z,96.10
2023-05-19T07:07:27.733Z,96.00
2023-05-19T07:10:01.308Z,96.40
2023-05-19T07:12:34.475Z,96.10
2023-05-19T07:15:09.963Z,95.50
2023-05-19T07:17:43.433Z,95.60
2023-05-19T07:20:17.940Z,95.50
2023-05-19T07:22:51.228Z,95.00
2023-05-19T07:25:26.048Z,95.10
2023-05-19T07:27:59.059Z,95.50
2023-05-19T07:30:33.615Z,95.20
2023-05-19T07:33:08.248Z,94.50
2023-05-19T07:35:41.704Z,94.50
2023-05-19T07:38:15.012Z,94.50
2023-05-19T07:40:48.283Z,95.30
2023-05-19T07:43:21.883Z,94.60
2023-05-19T07:45:56.393Z,94.00
2023-05-19T07:48:30.248Z,93.90
2023-05-19T07:51:03.538Z,94.20
2023-05-19T07:53:36.883Z,93.50
2023-05-19T07:56:10.649Z,93.30
2023-05-19T07:58:43.660Z,93.90
2023-05-19T08:01:17.037Z,93.30
2023-05-19T08:03:50.475Z,93.40
2023-05-19T08:06:25.204Z,92.70
2023-05-19T08:08:58.851Z,92.50
2023-05-19T08:11:32.169Z,92.40
2023-05-19T08:14:05.232Z,92.20
2023-05-19T08:16:38.730Z,92.90
2023-05-19T08:19:12.484Z,92.40
2023-05-19T08:21:45.817Z,91.50
2023-05-19T08:24:19.182Z,93.10
2023-05-19T08:26:52.451Z,92.70
2023-05-19T08:29:25.582Z,91.60
2023-05-19T08:31:59.402Z,91.00
2023-05-19T08:34:33.231Z,90.60
2023-05-19T08:37:07.033Z,90.10
2023-05-19T08:39:40.739Z,90.00
2023-05-19T08:42:14.242Z,89.80
2023-05-19T08:44:47.495Z,88.80
2023-05-19T08:47:20.911Z,90.00
2023-05-19T08:50:04.959Z,88.50
2023-05-19T08:52:57.807Z,89.40
2023-05-19T08:55:42.907Z,87.20
2023-05-19T08:58:20.336Z,87.70
2023-05-19T09:00:54.665Z,84.60
2023-05-19T09:03:29.369Z,86.60
2023-05-19T09:06:05.095Z,82.10
2023-05-19T09:08:38.461Z,84.60
2023-05-19T09:11:13.130Z,83.20
2023-05-19T09:13:46.987Z,83.70
2023-05-19T09:16:20.902Z,80.40
2023-05-19T09:19:01.623Z,83.70
2023-05-19T09:21:37.440Z,82.10
2023-05-19T09:24:12.812Z,82.20
2023-05-19T09:26:46.705Z,83.00
2023-05-19T09:29:21.326Z,83.10
2023-05-19T09:32:00.619Z,81.60
2023-05-19T09:34:34.510Z,82.00
2023-05-19T09:37:08.091Z,85.20
2023-05-19T09:39:41.745Z,85.40
2023-05-19T09:42:17.097Z,83.90
2023-05-19T09:44:51.585Z,80.60
2023-05-19T09:47:25.476Z,79.90
2023-05-19T09:49:59.844Z,76.40
2023-05-19T09:52:35.781Z,80.70
2023-05-19T09:55:12.940Z,75.00
2023-05-19T09:57:48.000Z,73.90
2023-05-19T10:00:24.562Z,74.00
2023-05-19T10:02:59.544Z,72.60
2023-05-19T10:05:35.479Z,71.30
2023-05-19T10:08:12.958Z,67.20
2023-05-19T10:10:49.318Z,68.60
2023-05-19T10:13:25.051Z,68.50
2023-05-19T10:16:00.299Z,69.40
2023-05-19T10:18:39.111Z,69.00
2023-05-19T10:21:14.898Z,69.50
2023-05-19T10:23:48.186Z,66.50
2023-05-19T10:26:23.663Z,64.90
2023-05-19T10:28:59.549Z,63.00
2023-05-19T10:31:35.070Z,62.70
2023-05-19T10:34:34.469Z,64.20
2023-05-19T10:37:20.583Z,60.70
2023-05-19T10:39:56.585Z,59.40
2023-05-19T10:42:46.825Z,58.10
2023-05-19T10:45:28.113Z,59.70
2023-05-19T10:48:01.920Z,55.30
2023-05-19T10:50:44.335Z,55.10
2023-05-19T10:53:23.099Z,58.70
2023-05-19T10:56:03.467Z,61.30
2023-05-19T10:58:59.014Z,54.30
2023-05-19T11:01:39.448Z,55.30
2023-05-19T11:04:15.939Z,55.50
2023-05-19T11:06:57.811Z,55.10
2023-05-19T11:09:40.053Z,55.70
2023-05-19T11:12:12.888Z,54.50
2023-05-19T11:14:46.275Z,56.10
2023-05-19T11:17:23.717Z,52.00
2023-05-19T11:20:04.582Z,52.50
2023-05-19T11:22:41.072Z,51.90
2023-05-19T11:25:19.128Z,52.50
2023-05-19T11:27:53.569Z,51.70
2023-05-19T11:30:27.327Z,50.70
2023-05-19T11:33:01.051Z,51.30
2023-05-19T11:35:37.440Z,49.10
2023-05-19T11:38:11.992Z,50.00
2023-05-19T11:40:49.707Z,50.20
2023-05-19T11:43:26.511Z,49.30
2023-05-19T11:46:00.866Z,49.80
2023-05-19T11:48:35.931Z,47.40
2023-05-19T11:51:11.648Z,47.70
2023-05-19T11:53:46.100Z,48.90
2023-05-19T11:56:19.356Z,50.00
2023-05-19T11:58:55.983Z,47.40
2023-05-19T12:01:31.902Z,49.00
2023-05-19T12:04:09.053Z,50.80
2023-05-19T12:06:42.397Z,48.30
2023-05-19T12:09:16.264Z,45.50
2023-05-19T12:11:50.729Z,46.20
2023-05-19T12:14:24.492Z,48.20
2023-05-19T12:16:58.197Z,45.90
2023-05-19T12:19:31.786Z,46.10
2023-05-19T12:22:06.199Z,44.40
2023-05-19T12:24:40.109Z,43.30
2023-05-19T12:27:19.386Z,48.00
2023-05-19T12:29:58.165Z,43.90
2023-05-19T12:32:34.461Z,42.80
2023-05-19T12:35:10.056Z,42.80
2023-05-19T12:37:49.095Z,43.20
2023-05-19T12:40:22.567Z,43.50
2023-05-19T12:42:59.763Z,45.20
2023-05-19T12:45:37.479Z,46.00
2023-05-19T12:48:17.019Z,43.80
2023-05-19T12:50:52.808Z,43.20
2023-05-19T12:53:29.581Z,46.30
2023-05-19T12:56:10.993Z,43.60
2023-05-19T12:58:45.891Z,43.10
2023-05-19T13:01:24.114Z,42.70
2023-05-19T13:03:58.029Z,42.60
2023-05-19T13:06:32.769Z,42.90
2023-05-19T13:09:07.182Z,44.00
2023-05-19T13:11:40.587Z,43.80
2023-05-19T13:14:17.132Z,42.50
2023-05-19T13:16:51.259Z,45.30
2023-05-19T13:19:26.205Z,43.00
2023-05-19T13:21:59.839Z,43.20
2023-05-19T13:24:33.410Z,41.70
2023-05-19T13:27:06.678Z,42.00
2023-05-19T13:29:41.443Z,40.50
2023-05-19T13:32:14.854Z,41.20
2023-05-19T13:34:48.940Z,42.20
2023-05-19T13:37:22.776Z,42.30
2023-05-19T13:39:57.652Z,41.50
2023-05-19T13:42:30.945Z,41.30
2023-05-19T13:45:04.437Z,40.90
2023-05-19T13:47:38.218Z,39.20
2023-05-19T13:50:13.759Z,39.70
2023-05-19T13:52:47.452Z,42.10
2023-05-19T13:55:21.391Z,40.90
2023-05-19T13:57:54.436Z,40.50
2023-05-19T14:00:28.433Z,41.50
2023-05-19T14:03:01.974Z,39.70
2023-05-19T14:05:35.811Z,40.80
2023-05-19T14:08:11.323Z,40.40
2023-05-19T14:10:44.683Z,40.40
2023-05-19T14:13:32.639Z,41.20
2023-05-19T14:16:09.772Z,40.90
2023-05-19T14:18:43.386Z,42.10
2023-05-19T14:21:16.746Z,42.00
2023-05-19T14:23:50.138Z,40.50
2023-05-19T14:26:24.829Z,39.90
2023-05-19T14:28:58.380Z,38.80
2023-05-19T14:31:33.663Z,37.50
2023-05-19T14:34:06.965Z,38.40
2023-05-19T14:36:40.337Z,38.60
2023-05-19T14:39:13.754Z,39.50
2023-05-19T14:41:47.161Z,40.60
2023-05-19T14:44:20.214Z,39.40
2023-05-19T14:46:53.506Z,40.80
2023-05-19T14:49:27.120Z,40.40
2023-05-19T14:52:00.458Z,39.90
2023-05-19T14:54:33.822Z,39.90
2023-05-19T14:57:08.074Z,39.70
2023-05-19T14:59:43.325Z,40.20
2023-05-19T15:02:16.618Z,40.70
2023-05-19T15:04:49.965Z,41.20
2023-05-19T15:07:24.577Z,42.20
2023-05-19T15:09:58.318Z,39.70
2023-05-19T15:12:31.711Z,39.10
2023-05-19T15:15:05.097Z,40.90
2023-05-19T15:17:38.424Z,41.40
2023-05-19T15:20:15.149Z,41.80
2023-05-19T15:22:48.545Z,40.10
2023-05-19T15:25:21.866Z,40.80
2023-05-19T15:27:55.379Z,43.30
2023-05-19T15:30:29.174Z,43.60
2023-05-19T15:33:02.506Z,40.70
2023-05-19T15:35:35.851Z,41.70
2023-05-19T15:38:09.166Z,42.40
2023-05-19T15:40:44.487Z,42.20
2023-05-19T15:43:17.901Z,42.80
2023-05-19T15:45:54.901Z,43.00
2023-05-19T15:48:29.006Z,41.50
2023-05-19T15:51:02.767Z,41.30
2023-05-19T15:53:36.356Z,41.70
2023-05-19T15:56:10.728Z,41.70
2023-05-19T15:58:44.235Z,41.90
2023-05-19T16:01:17.669Z,42.00
2023-05-19T16:03:51.599Z,43.40
2023-05-19T16:06:27.566Z,42.90
2023-05-19T16:09:01.231Z,43.60
2023-05-19T16:11:34.958Z,43.00
2023-05-19T16:14:08.176Z,44.00
2023-05-19T16:16:41.301Z,42.80
2023-05-19T16:19:14.941Z,43.60
2023-05-19T16:21:48.604Z,42.50
2023-05-19T16:24:22.122Z,42.90
2023-05-19T16:26:55.454Z,43.60
2023-05-19T16:29:28.793Z,43.80
2023-05-19T16:32:01.860Z,43.50
2023-05-19T16:34:35.583Z,42.90
2023-05-19T16:37:10.018Z,42.50
2023-05-19T16:39:43.734Z,43.60
2023-05-19T16:42:17.064Z,44.20
2023-05-19T16:44:50.351Z,43.70
2023-05-19T16:47:23.376Z,44.10
2023-05-19T16:49:56.751Z,44.50
2023-05-19T16:52:30.145Z,44.20
2023-05-19T16:55:03.535Z,44.60
2023-05-19T16:57:36.874Z,46.00
2023-05-19T17:00:14.276Z,46.60
2023-05-19T17:02:47.834Z,45.30
2023-05-19T17:05:21.250Z,44.80
2023-05-19T17:07:54.657Z,45.80
2023-05-19T17:10:28.104Z,43.40
2023-05-19T17:13:01.377Z,44.80
2023-05-19T17:15:34.935Z,44.60
2023-05-19T17:18:08.007Z,44.10
2023-05-19T17:20:41.646Z,44.40
2023-05-19T17:23:15.125Z,44.30
2023-05-19T17:25:48.496Z,45.90
2023-05-19T17:28:22.800Z,44.70
2023-05-19T17:30:56.106Z,44.70
2023-05-19T17:33:29.379Z,45.00
2023-05-19T17:36:05.326Z,46.10
2023-05-19T17:38:40.409Z,44.90
2023-05-19T17:41:14.280Z,46.10
2023-05-19T17:43:48.430Z,46.30
2023-05-19T17:46:21.747Z,47.40
2023-05-19T17:48:55.554Z,47.10
2023-05-19T17:51:32.080Z,47.60
2023-05-19T17:54:08.558Z,47.00
2023-05-19T17:56:48.234Z,47.00
2023-05-19T17:59:22.829Z,47.40
2023-05-19T18:01:58.236Z,48.20
2023-05-19T18:04:33.543Z,47.60
2023-05-19T18:07:09.985Z,47.10
2023-05-19T18:09:51.930Z,47.90
2023-05-19T18:12:25.356Z,48.20
2023-05-19T18:14:58.675Z,48.90
2023-05-19T18:17:31.971Z,48.60
2023-05-19T18:20:05.295Z,48.40
2023-05-19T18:22:38.670Z,48.80
2023-05-19T18:25:14.359Z,49.20
2023-05-19T18:27:48.016Z,48.90
2023-05-19T18:30:21.979Z,48.90
2023-05-19T18:32:55.402Z,49.20
2023-05-19T18:35:28.434Z,50.30
2023-05-19T18:38:02.403Z,49.90
2023-05-19T18:40:35.955Z,50.20
2023-05-19T18:43:09.481Z,52.10
2023-05-19T18:45:43.241Z,51.50
2023-05-19T18:48:16.537Z,51.70
2023-05-19T18:50:49.817Z,51.70
2023-05-19T18:53:23.662Z,51.30
2023-05-19T18:55:57.019Z,51.70
2023-05-19T18:58:30.415Z,51.70
2023-05-19T19:01:03.724Z,52.80
2023-05-19T19:03:37.040Z,53.70
2023-05-19T19:06:10.986Z,52.90
2023-05-19T19:08:44.651Z,53.30
2023-05-19T19:11:18.120Z,54.20
2023-05-19T19:13:55.364Z,53.00
2023-05-19T19:16:29.058Z,53.00
2023-05-19T19:19:02.407Z,53.70
2023-05-19T19:21:35.638Z,54.40
2023-05-19T19:24:10.118Z,54.60
2023-05-19T19:26:43.468Z,54.00
2023-05-19T19:29:18.144Z,54.40
2023-05-19T19:31:51.775Z,55.10
2023-05-19T19:34:25.079Z,54.40
2023-05-19T19:36:58.170Z,54.80
2023-05-19T19:39:31.464Z,55.40
2023-05-19T19:42:04.956Z,55.60
2023-05-19T19:44:38.360Z,55.10
2023-05-19T19:47:11.979Z,56.30
2023-05-19T19:49:46.082Z,55.70
2023-05-19T19:52:20.302Z,56.10
2023-05-19T19:54:53.642Z,56.40
2023-05-19T19:57:29.123Z,56.70
2023-05-19T20:00:08.289Z,56.30
2023-05-19T20:02:55.833Z,56.40
2023-05-19T20:05:38.013Z,55.90
2023-05-19T20:08:11.497Z,56.60
2023-05-19T20:10:46.763Z,57.10
2023-05-19T20:13:20.702Z,57.00
2023-05-19T20:15:54.061Z,57.40
2023-05-19T20:18:29.632Z,57.60
2023-05-19T20:21:02.994Z,58.20
2023-05-19T20:23:38.782Z,58.30
2023-05-19T20:26:13.392Z,58.30
2023-05-19T20:28:47.164Z,58.00
2023-05-19T20:31:21.400Z,58.30
2023-05-19T20:33:54.751Z,59.00
2023-05-19T20:36:28.135Z,59.30
2023-05-19T20:39:01.296Z,58.80
2023-05-19T20:41:34.541Z,59.50
2023-05-19T20:44:08.476Z,59.50
2023-05-19T20:46:42.130Z,59.70
2023-05-19T20:49:15.552Z,59.90
2023-05-19T20:51:48.974Z,59.80
2023-05-19T20:54:22.180Z,60.60
2023-05-19T20:56:55.972Z,60.80
2023-05-19T20:59:29.293Z,60.70
2023-05-19T21:02:02.707Z,61.60
2023-05-19T21:04:37.241Z,61.00
2023-05-19T21:07:11.130Z,61.10
2023-05-19T21:09:46.515Z,61.80
2023-05-19T21:12:23.748Z,61.90
2023-05-19T21:14:57.116Z,61.90
2023-05-19T21:17:30.415Z,62.50
2023-05-19T21:20:04.140Z,62.80
2023-05-19T21:22:37.526Z,62.40
2023-05-19T21:25:12.086Z,62.70
2023-05-19T21:27:46.608Z,63.20
2023-05-19T21:30:20.286Z,64.00
2023-05-19T21:32:53.990Z,64.10
2023-05-19T21:35:27.594Z,64.20
2023-05-19T21:38:11.941Z,64.00
2023-05-19T21:40:51.666Z,64.20
2023-05-19T21:43:25.045Z,64.50
2023-05-19T21:45:58.516Z,64.70
2023-05-19T21:48:32.991Z,65.00
2023-05-19T21:51:07.305Z,65.00
2023-05-19T21:53:40.554Z,66.10
2023-05-19T21:56:14.426Z,65.70
2023-05-19T21:58:47.857Z,65.70
2023-05-19T22:01:22.215Z,66.20
2023-05-19T22:03:55.937Z,66.10
2023-05-19T22:06:29.753Z,66.70
2023-05-19T22:09:03.551Z,66.40
2023-05-19T22:11:37.350Z,66.50
2023-05-19T22:14:10.696Z,67.40
2023-05-19T22:16:44.132Z,67.80
2023-05-19T22:19:18.278Z,67.60
2023-05-19T22:21:58.437Z,68.90
2023-05-19T22:24:35.896Z,67.60
2023-05-19T22:27:10.938Z,68.60
2023-05-19T22:29:44.539Z,68.30
2023-05-19T22:32:19.394Z,68.70
2023-05-19T22:34:52.767Z,69.00
2023-05-19T22:37:28.878Z,69.00
2023-05-19T22:40:02.387Z,69.40
2023-05-19T22:42:35.371Z,69.10
2023-05-19T22:45:10.696Z,70.00
2023-05-19T22:47:44.092Z,70.10
2023-05-19T22:50:17.761Z,69.80
2023-05-19T22:52:51.047Z,69.80
2023-05-19T22:55:24.284Z,70.10
2023-05-19T22:57:57.511Z,70.20
2023-05-19T23:00:30.889Z,70.00
2023-05-19T23:03:04.658Z,70.70
2023-05-19T23:05:37.998Z,71.10
2023-05-19T23:08:12.230Z,71.00
2023-05-19T23:10:45.530Z,71.40
2023-05-19T23:13:20.065Z,72.00
2023-05-19T23:15:53.935Z,72.60
2023-05-19T23:18:27.350Z,72.20
2023-05-19T23:21:00.664Z,72.80
2023-05-19T23:23:35.855Z,73.00
2023-05-19T23:26:09.145Z,73.50
2023-05-19T23:28:42.665Z,73.60
2023-05-19T23:31:15.976Z,74.10
2023-05-19T23:33:49.429Z,74.00
2023-05-19T23:36:23.429Z,74.30
2023-05-19T23:38:56.696Z,75.00
2023-05-19T23:41:29.941Z,75.10
2023-05-19T23:44:03.159Z,75.40
2023-05-19T23:46:36.523Z,75.70
2023-05-19T23:49:10.198Z,75.80
2023-05-19T23:51:43.499Z,76.00
2023-05-19T23:54:16.741Z,76.50
2023-05-19T23:56:50.014Z,76.50
2023-05-19T23:59:23.215Z,76.50
